sensor_id;sensor_type;location;lat;lon;timestamp;P1;durP1;ratioP1;P2;durP2;ratioP2
12762;SDS011;6445;52.490;13.378;2023-08-31T00:00:43;5.43;;;3.70;;
12762;SDS011;6445;52.490;13.378;2023-08-31T00:03:09;4.00;;;3.60;;
12762;SDS011;6445;52.490;13.378;2023-08-31T00:05:38;4.38;;;3.90;;
12762;SDS011;6445;52.490;13.378;2023-08-31T00:08:07;4.63;;;4.22;;
12762;SDS011;6445;52.490;13.378;2023-08-31T00:10:33;4.53;;;3.90;;
12762;SDS011;6445;52.490;13.378;2023-08-31T00:12:59;3.92;;;3.60;;
12762;SDS011;6445;52.490;13.378;2023-08-31T00:15:25;4.47;;;4.07;;
12762;SDS011;6445;52.490;13.378;2023-08-31T00:17:50;5.68;;;4.07;;
12762;SDS011;6445;52.490;13.378;2023-08-31T00:20:16;5.35;;;3.90;;
12762;SDS011;6445;52.490;13.378;2023-08-31T00:22:42;4.40;;;3.70;;
12762;SDS011;6445;52.490;13.378;2023-08-31T00:25:07;4.88;;;4.00;;
12762;SDS011;6445;52.490;13.378;2023-08-31T00:27:33;5.90;;;3.92;;
12762;SDS011;6445;52.490;13.378;2023-08-31T00:29:59;4.32;;;3.92;;
12762;SDS011;6445;52.490;13.378;2023-08-31T00:32:24;4.13;;;3.72;;
12762;SDS011;6445;52.490;13.378;2023-08-31T00:34:50;4.22;;;3.83;;
12762;SDS011;6445;52.490;13.378;2023-08-31T00:37:15;4.88;;;3.50;;
12762;SDS011;6445;52.490;13.378;2023-08-31T00:39:41;5.57;;;3.60;;
12762;SDS011;6445;52.490;13.378;2023-08-31T00:42:06;5.05;;;4.55;;
12762;SDS011;6445;52.490;13.378;2023-08-31T00:44:32;5.47;;;4.35;;
12762;SDS011;6445;52.490;13.378;2023-08-31T00:46:57;5.03;;;3.92;;
12762;SDS011;6445;52.490;13.378;2023-08-31T00:49:23;3.97;;;3.63;;
12762;SDS011;6445;52.490;13.378;2023-08-31T00:51:48;3.95;;;3.55;;
12762;SDS011;6445;52.490;13.378;2023-08-31T00:54:18;4.80;;;3.67;;
12762;SDS011;6445;52.490;13.378;2023-08-31T00:56:45;3.75;;;3.45;;
12762;SDS011;6445;52.490;13.378;2023-08-31T00:59:11;4.82;;;3.78;;
12762;SDS011;6445;52.490;13.378;2023-08-31T01:01:37;5.13;;;3.70;;
12762;SDS011;6445;52.490;13.378;2023-08-31T01:04:18;4.30;;;3.90;;
12762;SDS011;6445;52.490;13.378;2023-08-31T01:12:24;4.28;;;3.70;;
12762;SDS011;6445;52.490;13.378;2023-08-31T01:15:01;3.88;;;3.53;;
12762;SDS011;6445;52.490;13.378;2023-08-31T01:17:29;4.63;;;4.22;;
12762;SDS011;6445;52.490;13.378;2023-08-31T01:19:57;5.05;;;4.60;;
12762;SDS011;6445;52.490;13.378;2023-08-31T01:22:43;4.90;;;4.47;;
12762;SDS011;6445;52.490;13.378;2023-08-31T01:25:12;5.03;;;4.63;;
12762;SDS011;6445;52.490;13.378;2023-08-31T01:27:38;4.30;;;3.90;;
12762;SDS011;6445;52.490;13.378;2023-08-31T01:30:04;4.35;;;3.90;;
12762;SDS011;6445;52.490;13.378;2023-08-31T01:32:33;5.15;;;4.15;;
12762;SDS011;6445;52.490;13.378;2023-08-31T01:34:59;4.35;;;3.95;;
12762;SDS011;6445;52.490;13.378;2023-08-31T01:37:37;6.63;;;4.63;;
12762;SDS011;6445;52.490;13.378;2023-08-31T01:40:14;5.85;;;4.65;;
12762;SDS011;6445;52.490;13.378;2023-08-31T01:43:01;6.07;;;4.80;;
12762;SDS011;6445;52.490;13.378;2023-08-31T01:45:28;5.38;;;4.88;;
12762;SDS011;6445;52.490;13.378;2023-08-31T01:47:55;5.45;;;4.95;;
12762;SDS011;6445;52.490;13.378;2023-08-31T01:50:21;5.68;;;4.65;;
12762;SDS011;6445;52.490;13.378;2023-08-31T01:52:46;6.28;;;4.45;;
12762;SDS011;6445;52.490;13.378;2023-08-31T01:55:12;5.75;;;4.65;;
12762;SDS011;6445;52.490;13.378;2023-08-31T01:57:40;4.55;;;4.03;;
12762;SDS011;6445;52.490;13.378;2023-08-31T02:00:06;4.38;;;4.00;;
12762;SDS011;6445;52.490;13.378;2023-08-31T02:02:34;4.30;;;3.90;;
12762;SDS011;6445;52.490;13.378;2023-08-31T02:04:59;4.63;;;4.18;;
12762;SDS011;6445;52.490;13.378;2023-08-31T02:07:26;6.13;;;4.07;;
12762;SDS011;6445;52.490;13.378;2023-08-31T02:09:52;5.05;;;3.92;;
12762;SDS011;6445;52.490;13.378;2023-08-31T02:12:17;4.13;;;3.53;;
12762;SDS011;6445;52.490;13.378;2023-08-31T02:14:42;4.13;;;3.83;;
12762;SDS011;6445;52.490;13.378;2023-08-31T02:17:08;3.90;;;3.50;;
12762;SDS011;6445;52.490;13.378;2023-08-31T02:19:33;3.72;;;3.42;;
12762;SDS011;6445;52.490;13.378;2023-08-31T02:21:58;3.67;;;3.05;;
12762;SDS011;6445;52.490;13.378;2023-08-31T02:24:23;3.40;;;3.10;;
12762;SDS011;6445;52.490;13.378;2023-08-31T02:26:49;4.05;;;3.35;;
12762;SDS011;6445;52.490;13.378;2023-08-31T02:29:14;4.13;;;2.75;;
12762;SDS011;6445;52.490;13.378;2023-08-31T02:31:39;3.95;;;3.53;;
12762;SDS011;6445;52.490;13.378;2023-08-31T02:34:06;2.97;;;2.70;;
12762;SDS011;6445;52.490;13.378;2023-08-31T02:36:31;3.28;;;2.97;;
12762;SDS011;6445;52.490;13.378;2023-08-31T02:38:56;2.78;;;2.42;;
12762;SDS011;6445;52.490;13.378;2023-08-31T02:41:22;3.17;;;2.88;;
12762;SDS011;6445;52.490;13.378;2023-08-31T02:43:50;3.10;;;2.80;;
12762;SDS011;6445;52.490;13.378;2023-08-31T02:46:16;4.05;;;2.83;;
12762;SDS011;6445;52.490;13.378;2023-08-31T02:48:41;3.15;;;2.70;;
12762;SDS011;6445;52.490;13.378;2023-08-31T02:51:06;4.32;;;2.45;;
12762;SDS011;6445;52.490;13.378;2023-08-31T02:53:32;4.45;;;2.55;;
12762;SDS011;6445;52.490;13.378;2023-08-31T02:55:57;2.72;;;2.50;;
12762;SDS011;6445;52.490;13.378;2023-08-31T02:58:22;2.40;;;2.20;;
12762;SDS011;6445;52.490;13.378;2023-08-31T03:00:48;3.78;;;2.40;;
12762;SDS011;6445;52.490;13.378;2023-08-31T03:03:16;3.72;;;2.80;;
12762;SDS011;6445;52.490;13.378;2023-08-31T03:05:42;3.80;;;2.63;;
12762;SDS011;6445;52.490;13.378;2023-08-31T03:08:08;2.88;;;2.45;;
12762;SDS011;6445;52.490;13.378;2023-08-31T03:10:33;3.15;;;2.45;;
12762;SDS011;6445;52.490;13.378;2023-08-31T03:12:59;4.07;;;2.58;;
12762;SDS011;6445;52.490;13.378;2023-08-31T03:15:24;2.33;;;2.13;;
12762;SDS011;6445;52.490;13.378;2023-08-31T03:17:49;4.53;;;2.42;;
12762;SDS011;6445;52.490;13.378;2023-08-31T03:20:14;4.22;;;2.60;;
12762;SDS011;6445;52.490;13.378;2023-08-31T03:22:40;6.95;;;2.53;;
12762;SDS011;6445;52.490;13.378;2023-08-31T03:25:05;3.08;;;2.20;;
12762;SDS011;6445;52.490;13.378;2023-08-31T03:27:31;3.53;;;2.40;;
12762;SDS011;6445;52.490;13.378;2023-08-31T03:29:56;3.65;;;2.55;;
12762;SDS011;6445;52.490;13.378;2023-08-31T03:32:21;3.08;;;2.67;;
12762;SDS011;6445;52.490;13.378;2023-08-31T03:34:46;3.47;;;2.88;;
12762;SDS011;6445;52.490;13.378;2023-08-31T03:37:12;3.10;;;2.60;;
12762;SDS011;6445;52.490;13.378;2023-08-31T03:39:37;4.05;;;2.28;;
12762;SDS011;6445;52.490;13.378;2023-08-31T03:42:02;2.92;;;2.63;;
12762;SDS011;6445;52.490;13.378;2023-08-31T03:44:28;4.30;;;2.92;;
12762;SDS011;6445;52.490;13.378;2023-08-31T03:46:53;4.47;;;2.90;;
12762;SDS011;6445;52.490;13.378;2023-08-31T03:49:19;3.47;;;3.17;;
12762;SDS011;6445;52.490;13.378;2023-08-31T03:51:44;5.18;;;3.72;;
12762;SDS011;6445;52.490;13.378;2023-08-31T03:54:09;4.47;;;3.70;;
12762;SDS011;6445;52.490;13.378;2023-08-31T03:56:34;4.68;;;3.85;;
12762;SDS011;6445;52.490;13.378;2023-08-31T03:59:01;4.38;;;3.20;;
12762;SDS011;6445;52.490;13.378;2023-08-31T04:01:28;5.55;;;3.50;;
12762;SDS011;6445;52.490;13.378;2023-08-31T04:03:54;4.80;;;4.28;;
12762;SDS011;6445;52.490;13.378;2023-08-31T04:06:19;5.75;;;4.10;;
12762;SDS011;6445;52.490;13.378;2023-08-31T04:08:44;7.80;;;4.70;;
12762;SDS011;6445;52.490;13.378;2023-08-31T04:11:09;4.80;;;4.40;;
12762;SDS011;6445;52.490;13.378;2023-08-31T04:13:35;5.60;;;4.80;;
12762;SDS011;6445;52.490;13.378;2023-08-31T04:16:00;5.85;;;4.43;;
12762;SDS011;6445;52.490;13.378;2023-08-31T04:18:25;4.88;;;4.32;;
12762;SDS011;6445;52.490;13.378;2023-08-31T04:20:51;5.68;;;5.13;;
12762;SDS011;6445;52.490;13.378;2023-08-31T04:23:18;7.30;;;4.97;;
12762;SDS011;6445;52.490;13.378;2023-08-31T04:25:44;5.97;;;5.18;;
12762;SDS011;6445;52.490;13.378;2023-08-31T04:28:10;7.80;;;5.93;;
12762;SDS011;6445;52.490;13.378;2023-08-31T04:30:35;6.55;;;5.85;;
12762;SDS011;6445;52.490;13.378;2023-08-31T04:33:00;6.22;;;5.63;;
12762;SDS011;6445;52.490;13.378;2023-08-31T04:35:25;6.78;;;6.05;;
12762;SDS011;6445;52.490;13.378;2023-08-31T04:37:51;7.05;;;6.10;;
12762;SDS011;6445;52.490;13.378;2023-08-31T04:40:16;7.97;;;6.07;;
12762;SDS011;6445;52.490;13.378;2023-08-31T04:42:42;7.03;;;6.32;;
12762;SDS011;6445;52.490;13.378;2023-08-31T04:45:07;8.75;;;5.75;;
12762;SDS011;6445;52.490;13.378;2023-08-31T04:47:33;9.13;;;6.13;;
12762;SDS011;6445;52.490;13.378;2023-08-31T04:49:58;7.38;;;6.53;;
12762;SDS011;6445;52.490;13.378;2023-08-31T04:52:24;7.90;;;6.78;;
12762;SDS011;6445;52.490;13.378;2023-08-31T04:54:49;7.72;;;6.80;;
12762;SDS011;6445;52.490;13.378;2023-08-31T04:57:15;7.18;;;6.35;;
12762;SDS011;6445;52.490;13.378;2023-08-31T04:59:40;7.57;;;6.78;;
12762;SDS011;6445;52.490;13.378;2023-08-31T05:02:05;9.45;;;7.47;;
12762;SDS011;6445;52.490;13.378;2023-08-31T05:04:30;9.95;;;7.00;;
12762;SDS011;6445;52.490;13.378;2023-08-31T05:06:56;8.38;;;7.30;;
12762;SDS011;6445;52.490;13.378;2023-08-31T05:09:21;7.78;;;6.88;;
12762;SDS011;6445;52.490;13.378;2023-08-31T05:11:47;10.05;;;7.25;;
12762;SDS011;6445;52.490;13.378;2023-08-31T05:14:13;9.88;;;7.28;;
12762;SDS011;6445;52.490;13.378;2023-08-31T05:16:38;9.57;;;7.78;;
12762;SDS011;6445;52.490;13.378;2023-08-31T05:19:03;10.35;;;7.60;;
12762;SDS011;6445;52.490;13.378;2023-08-31T05:21:28;11.23;;;7.47;;
12762;SDS011;6445;52.490;13.378;2023-08-31T05:23:54;8.10;;;7.30;;
12762;SDS011;6445;52.490;13.378;2023-08-31T05:26:19;11.20;;;7.63;;
12762;SDS011;6445;52.490;13.378;2023-08-31T05:28:44;7.95;;;6.85;;
12762;SDS011;6445;52.490;13.378;2023-08-31T05:31:09;8.48;;;7.55;;
12762;SDS011;6445;52.490;13.378;2023-08-31T05:33:34;21.52;;;16.35;;
12762;SDS011;6445;52.490;13.378;2023-08-31T05:36:01;9.30;;;7.78;;
12762;SDS011;6445;52.490;13.378;2023-08-31T05:38:28;8.40;;;7.55;;
12762;SDS011;6445;52.490;13.378;2023-08-31T05:40:54;11.10;;;7.82;;
12762;SDS011;6445;52.490;13.378;2023-08-31T05:43:19;10.35;;;8.25;;
12762;SDS011;6445;52.490;13.378;2023-08-31T05:45:44;10.07;;;8.70;;
12762;SDS011;6445;52.490;13.378;2023-08-31T05:48:11;9.60;;;7.95;;
12762;SDS011;6445;52.490;13.378;2023-08-31T05:50:36;9.75;;;8.25;;
12762;SDS011;6445;52.490;13.378;2023-08-31T05:53:02;10.27;;;8.77;;
12762;SDS011;6445;52.490;13.378;2023-08-31T05:55:28;9.48;;;8.48;;
12762;SDS011;6445;52.490;13.378;2023-08-31T05:57:53;9.75;;;8.15;;
12762;SDS011;6445;52.490;13.378;2023-08-31T06:00:18;9.20;;;8.15;;
12762;SDS011;6445;52.490;13.378;2023-08-31T06:02:44;11.95;;;8.43;;
12762;SDS011;6445;52.490;13.378;2023-08-31T06:05:12;10.80;;;8.35;;
12762;SDS011;6445;52.490;13.378;2023-08-31T06:07:37;9.15;;;8.25;;
12762;SDS011;6445;52.490;13.378;2023-08-31T06:10:03;10.07;;;8.00;;
12762;SDS011;6445;52.490;13.378;2023-08-31T06:12:29;10.23;;;8.38;;
12762;SDS011;6445;52.490;13.378;2023-08-31T06:14:55;9.18;;;7.95;;
12762;SDS011;6445;52.490;13.378;2023-08-31T06:17:20;9.40;;;7.57;;
12762;SDS011;6445;52.490;13.378;2023-08-31T06:19:45;10.18;;;7.90;;
12762;SDS011;6445;52.490;13.378;2023-08-31T06:22:10;8.23;;;6.93;;
12762;SDS011;6445;52.490;13.378;2023-08-31T06:24:36;9.20;;;7.82;;
12762;SDS011;6445;52.490;13.378;2023-08-31T06:27:01;10.32;;;8.15;;
12762;SDS011;6445;52.490;13.378;2023-08-31T06:29:27;12.32;;;9.10;;
12762;SDS011;6445;52.490;13.378;2023-08-31T06:31:52;10.55;;;7.75;;
12762;SDS011;6445;52.490;13.378;2023-08-31T06:34:18;10.30;;;7.95;;
12762;SDS011;6445;52.490;13.378;2023-08-31T06:36:43;10.25;;;7.65;;
12762;SDS011;6445;52.490;13.378;2023-08-31T06:39:08;9.65;;;8.07;;
12762;SDS011;6445;52.490;13.378;2023-08-31T06:41:33;9.13;;;7.80;;
12762;SDS011;6445;52.490;13.378;2023-08-31T06:43:59;9.02;;;7.95;;
12762;SDS011;6445;52.490;13.378;2023-08-31T06:46:24;13.55;;;10.60;;
12762;SDS011;6445;52.490;13.378;2023-08-31T06:48:49;10.50;;;8.25;;
12762;SDS011;6445;52.490;13.378;2023-08-31T06:51:15;11.05;;;8.07;;
12762;SDS011;6445;52.490;13.378;2023-08-31T06:53:41;10.43;;;8.63;;
12762;SDS011;6445;52.490;13.378;2023-08-31T06:56:08;11.68;;;9.32;;
12762;SDS011;6445;52.490;13.378;2023-08-31T06:58:33;10.57;;;8.35;;
12762;SDS011;6445;52.490;13.378;2023-08-31T07:00:59;9.90;;;8.32;;
12762;SDS011;6445;52.490;13.378;2023-08-31T07:03:24;10.35;;;7.50;;
12762;SDS011;6445;52.490;13.378;2023-08-31T07:05:49;10.45;;;8.13;;
12762;SDS011;6445;52.490;13.378;2023-08-31T07:08:14;9.75;;;7.47;;
12762;SDS011;6445;52.490;13.378;2023-08-31T07:10:40;8.85;;;7.63;;
12762;SDS011;6445;52.490;13.378;2023-08-31T07:13:05;8.35;;;6.72;;
12762;SDS011;6445;52.490;13.378;2023-08-31T07:15:30;10.15;;;7.55;;
12762;SDS011;6445;52.490;13.378;2023-08-31T07:17:56;8.55;;;6.80;;
12762;SDS011;6445;52.490;13.378;2023-08-31T07:20:21;9.10;;;7.07;;
12762;SDS011;6445;52.490;13.378;2023-08-31T07:22:46;9.18;;;7.25;;
12762;SDS011;6445;52.490;13.378;2023-08-31T07:25:11;7.88;;;6.32;;
12762;SDS011;6445;52.490;13.378;2023-08-31T07:27:37;10.70;;;7.88;;
12762;SDS011;6445;52.490;13.378;2023-08-31T07:30:03;10.65;;;7.45;;
12762;SDS011;6445;52.490;13.378;2023-08-31T07:32:29;7.75;;;6.45;;
12762;SDS011;6445;52.490;13.378;2023-08-31T07:34:54;11.05;;;7.63;;
12762;SDS011;6445;52.490;13.378;2023-08-31T07:37:19;13.10;;;6.40;;
12762;SDS011;6445;52.490;13.378;2023-08-31T07:39:45;9.65;;;6.95;;
12762;SDS011;6445;52.490;13.378;2023-08-31T07:42:10;7.32;;;6.47;;
12762;SDS011;6445;52.490;13.378;2023-08-31T07:44:36;8.30;;;6.20;;
12762;SDS011;6445;52.490;13.378;2023-08-31T07:47:01;8.40;;;6.47;;
12762;SDS011;6445;52.490;13.378;2023-08-31T07:49:27;9.15;;;6.15;;
12762;SDS011;6445;52.490;13.378;2023-08-31T07:51:52;9.13;;;5.55;;
12762;SDS011;6445;52.490;13.378;2023-08-31T07:54:24;7.63;;;4.88;;
12762;SDS011;6445;52.490;13.378;2023-08-31T07:56:50;7.80;;;4.63;;
12762;SDS011;6445;52.490;13.378;2023-08-31T07:59:16;7.57;;;5.00;;
12762;SDS011;6445;52.490;13.378;2023-08-31T08:01:42;8.45;;;4.22;;
12762;SDS011;6445;52.490;13.378;2023-08-31T08:04:07;5.55;;;3.78;;
12762;SDS011;6445;52.490;13.378;2023-08-31T08:06:33;6.93;;;4.15;;
12762;SDS011;6445;52.490;13.378;2023-08-31T08:08:58;5.78;;;4.22;;
12762;SDS011;6445;52.490;13.378;2023-08-31T08:11:23;6.18;;;3.72;;
12762;SDS011;6445;52.490;13.378;2023-08-31T08:13:48;5.90;;;3.10;;
12762;SDS011;6445;52.490;13.378;2023-08-31T08:16:14;4.72;;;3.38;;
12762;SDS011;6445;52.490;13.378;2023-08-31T08:18:39;5.05;;;3.10;;
12762;SDS011;6445;52.490;13.378;2023-08-31T08:21:05;4.07;;;2.70;;
12762;SDS011;6445;52.490;13.378;2023-08-31T08:23:30;6.50;;;3.30;;
12762;SDS011;6445;52.490;13.378;2023-08-31T08:25:55;5.93;;;2.97;;
12762;SDS011;6445;52.490;13.378;2023-08-31T08:28:21;4.25;;;2.63;;
12762;SDS011;6445;52.490;13.378;2023-08-31T08:30:46;5.43;;;2.72;;
12762;SDS011;6445;52.490;13.378;2023-08-31T08:33:11;4.65;;;3.10;;
12762;SDS011;6445;52.490;13.378;2023-08-31T08:35:37;4.35;;;3.28;;
12762;SDS011;6445;52.490;13.378;2023-08-31T08:38:03;5.60;;;3.00;;
12762;SDS011;6445;52.490;13.378;2023-08-31T08:40:30;6.78;;;2.45;;
12762;SDS011;6445;52.490;13.378;2023-08-31T08:42:56;3.22;;;2.20;;
12762;SDS011;6445;52.490;13.378;2023-08-31T08:45:24;4.43;;;2.10;;
12762;SDS011;6445;52.490;13.378;2023-08-31T08:47:54;3.47;;;2.30;;
12762;SDS011;6445;52.490;13.378;2023-08-31T08:50:20;3.35;;;1.95;;
12762;SDS011;6445;52.490;13.378;2023-08-31T08:52:46;6.63;;;2.67;;
12762;SDS011;6445;52.490;13.378;2023-08-31T08:55:12;3.88;;;2.22;;
12762;SDS011;6445;52.490;13.378;2023-08-31T08:57:38;3.70;;;2.30;;
12762;SDS011;6445;52.490;13.378;2023-08-31T09:00:03;4.40;;;2.28;;
12762;SDS011;6445;52.490;13.378;2023-08-31T09:02:29;3.00;;;2.45;;
12762;SDS011;6445;52.490;13.378;2023-08-31T09:04:55;6.20;;;2.45;;
12762;SDS011;6445;52.490;13.378;2023-08-31T09:07:20;4.35;;;2.05;;
12762;SDS011;6445;52.490;13.378;2023-08-31T09:09:53;4.97;;;2.35;;
12762;SDS011;6445;52.490;13.378;2023-08-31T09:12:21;3.58;;;2.33;;
12762;SDS011;6445;52.490;13.378;2023-08-31T09:15:01;4.40;;;1.85;;
12762;SDS011;6445;52.490;13.378;2023-08-31T09:17:40;4.65;;;1.90;;
12762;SDS011;6445;52.490;13.378;2023-08-31T09:20:07;3.55;;;2.00;;
12762;SDS011;6445;52.490;13.378;2023-08-31T09:22:34;4.57;;;1.77;;
12762;SDS011;6445;52.490;13.378;2023-08-31T09:24:59;3.67;;;1.83;;
12762;SDS011;6445;52.490;13.378;2023-08-31T09:27:24;5.13;;;2.10;;
12762;SDS011;6445;52.490;13.378;2023-08-31T09:29:50;5.85;;;2.00;;
12762;SDS011;6445;52.490;13.378;2023-08-31T09:32:16;3.17;;;2.17;;
12762;SDS011;6445;52.490;13.378;2023-08-31T09:34:42;4.68;;;2.03;;
12762;SDS011;6445;52.490;13.378;2023-08-31T09:37:08;3.80;;;1.83;;
12762;SDS011;6445;52.490;13.378;2023-08-31T09:39:37;4.35;;;1.80;;
12762;SDS011;6445;52.490;13.378;2023-08-31T09:42:04;2.47;;;1.58;;
12762;SDS011;6445;52.490;13.378;2023-08-31T09:44:29;2.90;;;1.77;;
12762;SDS011;6445;52.490;13.378;2023-08-31T09:46:54;2.72;;;1.75;;
12762;SDS011;6445;52.490;13.378;2023-08-31T09:49:21;3.38;;;1.70;;
12762;SDS011;6445;52.490;13.378;2023-08-31T09:51:48;7.32;;;1.80;;
12762;SDS011;6445;52.490;13.378;2023-08-31T09:54:15;5.25;;;1.88;;
12762;SDS011;6445;52.490;13.378;2023-08-31T09:56:43;6.05;;;1.80;;
12762;SDS011;6445;52.490;13.378;2023-08-31T09:59:13;4.78;;;1.73;;
12762;SDS011;6445;52.490;13.378;2023-08-31T10:01:43;5.45;;;1.65;;
12762;SDS011;6445;52.490;13.378;2023-08-31T10:04:10;3.20;;;1.65;;
12762;SDS011;6445;52.490;13.378;2023-08-31T10:06:40;3.90;;;1.70;;
12762;SDS011;6445;52.490;13.378;2023-08-31T10:09:06;3.90;;;1.70;;
12762;SDS011;6445;52.490;13.378;2023-08-31T10:11:34;3.28;;;1.50;;
12762;SDS011;6445;52.490;13.378;2023-08-31T10:14:02;4.10;;;1.40;;
12762;SDS011;6445;52.490;13.378;2023-08-31T10:16:28;4.20;;;1.67;;
12762;SDS011;6445;52.490;13.378;2023-08-31T10:18:55;5.80;;;1.58;;
12762;SDS011;6445;52.490;13.378;2023-08-31T10:21:20;3.03;;;1.38;;
12762;SDS011;6445;52.490;13.378;2023-08-31T10:23:47;4.68;;;1.30;;
12762;SDS011;6445;52.490;13.378;2023-08-31T10:26:22;3.65;;;1.60;;
12762;SDS011;6445;52.490;13.378;2023-08-31T10:28:54;4.28;;;1.40;;
12762;SDS011;6445;52.490;13.378;2023-08-31T10:31:21;3.85;;;1.55;;
12762;SDS011;6445;52.490;13.378;2023-08-31T10:34:02;3.58;;;1.40;;
12762;SDS011;6445;52.490;13.378;2023-08-31T10:36:44;8.15;;;1.75;;
12762;SDS011;6445;52.490;13.378;2023-08-31T10:39:17;3.25;;;1.50;;
12762;SDS011;6445;52.490;13.378;2023-08-31T10:41:56;3.80;;;1.92;;
12762;SDS011;6445;52.490;13.378;2023-08-31T10:44:25;3.13;;;1.70;;
12762;SDS011;6445;52.490;13.378;2023-08-31T10:46:52;4.07;;;1.98;;
12762;SDS011;6445;52.490;13.378;2023-08-31T10:49:19;5.85;;;2.40;;
12762;SDS011;6445;52.490;13.378;2023-08-31T10:51:46;4.45;;;2.40;;
12762;SDS011;6445;52.490;13.378;2023-08-31T10:59:25;3.17;;;2.15;;
12762;SDS011;6445;52.490;13.378;2023-08-31T11:01:55;4.15;;;2.45;;
12762;SDS011;6445;52.490;13.378;2023-08-31T11:04:25;3.53;;;2.30;;
12762;SDS011;6445;52.490;13.378;2023-08-31T11:09:40;3.30;;;2.00;;
12762;SDS011;6445;52.490;13.378;2023-08-31T11:12:06;4.68;;;2.50;;
12762;SDS011;6445;52.490;13.378;2023-08-31T11:14:32;7.28;;;2.92;;
12762;SDS011;6445;52.490;13.378;2023-08-31T11:16:57;4.10;;;2.25;;
12762;SDS011;6445;52.490;13.378;2023-08-31T11:19:25;4.38;;;2.42;;
12762;SDS011;6445;52.490;13.378;2023-08-31T11:21:50;4.82;;;2.20;;
12762;SDS011;6445;52.490;13.378;2023-08-31T11:24:16;4.45;;;2.22;;
12762;SDS011;6445;52.490;13.378;2023-08-31T11:26:42;3.17;;;1.90;;
12762;SDS011;6445;52.490;13.378;2023-08-31T11:29:07;3.00;;;1.73;;
12762;SDS011;6445;52.490;13.378;2023-08-31T11:31:37;3.63;;;2.50;;
12762;SDS011;6445;52.490;13.378;2023-08-31T11:34:04;3.08;;;1.95;;
12762;SDS011;6445;52.490;13.378;2023-08-31T11:36:30;5.78;;;2.00;;
12762;SDS011;6445;52.490;13.378;2023-08-31T11:38:56;5.65;;;2.38;;
12762;SDS011;6445;52.490;13.378;2023-08-31T11:41:21;3.72;;;2.30;;
12762;SDS011;6445;52.490;13.378;2023-08-31T11:43:47;4.38;;;1.83;;
12762;SDS011;6445;52.490;13.378;2023-08-31T11:46:13;4.13;;;1.95;;
12762;SDS011;6445;52.490;13.378;2023-08-31T11:48:38;2.95;;;1.80;;
12762;SDS011;6445;52.490;13.378;2023-08-31T11:51:03;5.00;;;1.80;;
12762;SDS011;6445;52.490;13.378;2023-08-31T11:53:29;4.68;;;2.17;;
12762;SDS011;6445;52.490;13.378;2023-08-31T11:55:54;5.85;;;2.28;;
12762;SDS011;6445;52.490;13.378;2023-08-31T11:58:20;6.05;;;2.50;;
12762;SDS011;6445;52.490;13.378;2023-08-31T12:00:45;12.63;;;4.72;;
12762;SDS011;6445;52.490;13.378;2023-08-31T12:03:19;11.90;;;3.80;;
12762;SDS011;6445;52.490;13.378;2023-08-31T12:05:45;6.28;;;3.00;;
12762;SDS011;6445;52.490;13.378;2023-08-31T12:08:11;8.00;;;4.10;;
12762;SDS011;6445;52.490;13.378;2023-08-31T12:10:39;7.15;;;4.20;;
12762;SDS011;6445;52.490;13.378;2023-08-31T12:13:09;6.00;;;3.75;;
12762;SDS011;6445;52.490;13.378;2023-08-31T12:15:35;8.23;;;4.03;;
12762;SDS011;6445;52.490;13.378;2023-08-31T12:18:10;6.65;;;3.95;;
12762;SDS011;6445;52.490;13.378;2023-08-31T12:20:46;4.50;;;3.13;;
12762;SDS011;6445;52.490;13.378;2023-08-31T12:23:12;4.10;;;2.60;;
12762;SDS011;6445;52.490;13.378;2023-08-31T12:25:44;4.53;;;2.92;;
12762;SDS011;6445;52.490;13.378;2023-08-31T12:28:13;4.03;;;2.63;;
12762;SDS011;6445;52.490;13.378;2023-08-31T12:30:41;3.25;;;2.72;;
12762;SDS011;6445;52.490;13.378;2023-08-31T12:33:09;6.00;;;3.30;;
12762;SDS011;6445;52.490;13.378;2023-08-31T12:35:34;5.25;;;2.92;;
12762;SDS011;6445;52.490;13.378;2023-08-31T12:38:00;5.90;;;3.50;;
12762;SDS011;6445;52.490;13.378;2023-08-31T12:40:25;6.15;;;4.43;;
12762;SDS011;6445;52.490;13.378;2023-08-31T12:42:50;5.35;;;2.90;;
12762;SDS011;6445;52.490;13.378;2023-08-31T12:45:15;7.40;;;2.95;;
12762;SDS011;6445;52.490;13.378;2023-08-31T12:47:41;4.63;;;2.78;;
12762;SDS011;6445;52.490;13.378;2023-08-31T12:50:06;3.65;;;2.65;;
12762;SDS011;6445;52.490;13.378;2023-08-31T12:52:32;5.07;;;2.35;;
12762;SDS011;6445;52.490;13.378;2023-08-31T12:54:57;4.22;;;2.38;;
12762;SDS011;6445;52.490;13.378;2023-08-31T12:57:22;2.72;;;1.88;;
12762;SDS011;6445;52.490;13.378;2023-08-31T12:59:48;2.30;;;1.80;;
12762;SDS011;6445;52.490;13.378;2023-08-31T13:02:13;2.20;;;1.83;;
12762;SDS011;6445;52.490;13.378;2023-08-31T13:04:38;1.88;;;1.55;;
12762;SDS011;6445;52.490;13.378;2023-08-31T13:07:04;3.67;;;1.90;;
12762;SDS011;6445;52.490;13.378;2023-08-31T13:09:30;2.28;;;1.50;;
12762;SDS011;6445;52.490;13.378;2023-08-31T13:11:55;2.83;;;1.80;;
12762;SDS011;6445;52.490;13.378;2023-08-31T13:14:20;3.08;;;1.60;;
12762;SDS011;6445;52.490;13.378;2023-08-31T13:16:45;3.80;;;1.42;;
12762;SDS011;6445;52.490;13.378;2023-08-31T13:19:11;1.90;;;1.33;;
12762;SDS011;6445;52.490;13.378;2023-08-31T13:21:36;1.75;;;1.40;;
12762;SDS011;6445;52.490;13.378;2023-08-31T13:24:02;1.85;;;1.40;;
12762;SDS011;6445;52.490;13.378;2023-08-31T13:26:27;3.58;;;1.60;;
12762;SDS011;6445;52.490;13.378;2023-08-31T13:28:52;2.40;;;1.60;;
12762;SDS011;6445;52.490;13.378;2023-08-31T13:31:18;2.47;;;1.45;;
12762;SDS011;6445;52.490;13.378;2023-08-31T13:33:43;1.63;;;1.38;;
12762;SDS011;6445;52.490;13.378;2023-08-31T13:36:08;2.42;;;1.73;;
12762;SDS011;6445;52.490;13.378;2023-08-31T13:38:34;2.53;;;1.50;;
12762;SDS011;6445;52.490;13.378;2023-08-31T13:40:59;1.80;;;1.50;;
12762;SDS011;6445;52.490;13.378;2023-08-31T13:43:25;4.28;;;1.60;;
12762;SDS011;6445;52.490;13.378;2023-08-31T13:45:50;2.80;;;1.70;;
12762;SDS011;6445;52.490;13.378;2023-08-31T13:48:16;2.13;;;1.60;;
12762;SDS011;6445;52.490;13.378;2023-08-31T13:50:41;2.75;;;1.50;;
12762;SDS011;6445;52.490;13.378;2023-08-31T13:53:07;2.70;;;2.03;;
12762;SDS011;6445;52.490;13.378;2023-08-31T13:55:32;1.77;;;1.58;;
12762;SDS011;6445;52.490;13.378;2023-08-31T13:58:06;2.78;;;1.60;;
12762;SDS011;6445;52.490;13.378;2023-08-31T14:00:33;3.38;;;1.83;;
12762;SDS011;6445;52.490;13.378;2023-08-31T14:02:59;3.30;;;1.70;;
12762;SDS011;6445;52.490;13.378;2023-08-31T14:05:27;2.65;;;1.70;;
12762;SDS011;6445;52.490;13.378;2023-08-31T14:07:53;2.75;;;1.63;;
12762;SDS011;6445;52.490;13.378;2023-08-31T14:10:19;2.17;;;1.60;;
12762;SDS011;6445;52.490;13.378;2023-08-31T14:12:46;2.95;;;1.90;;
12762;SDS011;6445;52.490;13.378;2023-08-31T14:15:11;2.33;;;1.60;;
12762;SDS011;6445;52.490;13.378;2023-08-31T14:17:37;2.33;;;1.50;;
12762;SDS011;6445;52.490;13.378;2023-08-31T14:20:02;2.03;;;1.60;;
12762;SDS011;6445;52.490;13.378;2023-08-31T14:22:31;2.95;;;1.55;;
12762;SDS011;6445;52.490;13.378;2023-08-31T14:24:56;1.33;;;1.20;;
12762;SDS011;6445;52.490;13.378;2023-08-31T14:27:21;1.63;;;1.48;;
12762;SDS011;6445;52.490;13.378;2023-08-31T14:29:48;2.05;;;1.30;;
12762;SDS011;6445;52.490;13.378;2023-08-31T14:32:13;3.38;;;1.40;;
12762;SDS011;6445;52.490;13.378;2023-08-31T14:34:38;1.98;;;1.30;;
12762;SDS011;6445;52.490;13.378;2023-08-31T14:37:03;1.27;;;1.10;;
12762;SDS011;6445;52.490;13.378;2023-08-31T14:39:29;2.22;;;1.00;;
12762;SDS011;6445;52.490;13.378;2023-08-31T14:41:54;1.17;;;0.80;;
12762;SDS011;6445;52.490;13.378;2023-08-31T14:44:21;3.38;;;0.93;;
12762;SDS011;6445;52.490;13.378;2023-08-31T14:46:46;0.88;;;0.88;;
12762;SDS011;6445;52.490;13.378;2023-08-31T14:49:12;2.10;;;0.90;;
12762;SDS011;6445;52.490;13.378;2023-08-31T14:51:37;1.65;;;1.15;;
12762;SDS011;6445;52.490;13.378;2023-08-31T14:54:02;2.33;;;0.98;;